sensor_id;sensor_type;location;lat;lon;timestamp;temperature;humidity
22008;DHT22;11168;56.976;24.168;2023-02-11T00:01:32;1.40;99.90
22008;DHT22;11168;56.976;24.168;2023-02-11T00:04:00;1.40;99.90
22008;DHT22;11168;56.976;24.168;2023-02-11T00:06:28;1.70;99.90
22008;DHT22;11168;56.976;24.168;2023-02-11T00:08:56;1.40;99.90
22008;DHT22;11168;56.976;24.168;2023-02-11T00:11:24;1.40;99.90
22008;DHT22;11168;56.976;24.168;2023-02-11T00:13:52;3.60;99.90
22008;DHT22;11168;56.976;24.168;2023-02-11T00:16:19;1.40;99.90
22008;DHT22;11168;56.976;24.168;2023-02-11T00:18:47;1.50;99.90
22008;DHT22;11168;56.976;24.168;2023-02-11T00:21:18;1.30;99.90
22008;DHT22;11168;56.976;24.168;2023-02-11T00:23:46;1.40;99.90
22008;DHT22;11168;56.976;24.168;2023-02-11T00:26:15;1.30;99.90
22008;DHT22;11168;56.976;24.168;2023-02-11T00:28:43;1.30;99.90
22008;DHT22;11168;56.976;24.168;2023-02-11T00:31:11;1.30;99.90
22008;DHT22;11168;56.976;24.168;2023-02-11T00:33:39;1.30;99.90
22008;DHT22;11168;56.976;24.168;2023-02-11T00:36:09;1.30;99.90
22008;DHT22;11168;56.976;24.168;2023-02-11T00:38:38;1.40;99.90
22008;DHT22;11168;56.976;24.168;2023-02-11T00:41:05;1.30;99.90
22008;DHT22;11168;56.976;24.168;2023-02-11T00:43:33;1.50;99.90
22008;DHT22;11168;56.976;24.168;2023-02-11T00:46:00;1.30;99.90
22008;DHT22;11168;56.976;24.168;2023-02-11T00:48:28;1.40;99.90
22008;DHT22;11168;56.976;24.168;2023-02-11T00:50:55;1.40;99.90
22008;DHT22;11168;56.976;24.168;2023-02-11T00:53:22;1.40;99.90
22008;DHT22;11168;56.976;24.168;2023-02-11T00:55:49;1.40;99.90
22008;DHT22;11168;56.976;24.168;2023-02-11T00:58:16;1.50;99.90
22008;DHT22;11168;56.976;24.168;2023-02-11T01:00:43;1.50;99.90
22008;DHT22;11168;56.976;24.168;2023-02-11T01:03:10;1.50;99.90
22008;DHT22;11168;56.976;24.168;2023-02-11T01:05:38;1.50;99.90
22008;DHT22;11168;56.976;24.168;2023-02-11T01:08:05;1.50;99.90
22008;DHT22;11168;56.976;24.168;2023-02-11T01:10:32;1.50;99.90
22008;DHT22;11168;56.976;24.168;2023-02-11T01:12:59;1.50;99.90
22008;DHT22;11168;56.976;24.168;2023-02-11T01:15:27;1.50;99.90
22008;DHT22;11168;56.976;24.168;2023-02-11T01:17:54;1.60;99.90
22008;DHT22;11168;56.976;24.168;2023-02-11T01:20:24;1.80;99.90
22008;DHT22;11168;56.976;24.168;2023-02-11T01:22:52;1.60;99.90
22008;DHT22;11168;56.976;24.168;2023-02-11T01:25:19;1.60;99.90
22008;DHT22;11168;56.976;24.168;2023-02-11T01:27:45;1.70;99.90
22008;DHT22;11168;56.976;24.168;2023-02-11T01:30:13;1.80;99.90
22008;DHT22;11168;56.976;24.168;2023-02-11T01:35:07;1.80;99.90
22008;DHT22;11168;56.976;24.168;2023-02-11T01:37:35;1.90;99.90
22008;DHT22;11168;56.976;24.168;2023-02-11T01:40:05;1.90;99.90
22008;DHT22;11168;56.976;24.168;2023-02-11T01:42:32;1.80;99.90
22008;DHT22;11168;56.976;24.168;2023-02-11T01:45:01;2.00;99.90
22008;DHT22;11168;56.976;24.168;2023-02-11T01:47:47;2.00;99.90
22008;DHT22;11168;56.976;24.168;2023-02-11T01:50:14;1.40;99.90
22008;DHT22;11168;56.976;24.168;2023-02-11T01:52:41;1.90;99.90
22008;DHT22;11168;56.976;24.168;2023-02-11T01:55:11;2.00;99.90
22008;DHT22;11168;56.976;24.168;2023-02-11T01:58:01;2.00;99.90
22008;DHT22;11168;56.976;24.168;2023-02-11T02:00:35;2.00;99.90
22008;DHT22;11168;56.976;24.168;2023-02-11T02:03:07;2.00;99.90
22008;DHT22;11168;56.976;24.168;2023-02-11T02:06:07;2.00;99.90
22008;DHT22;11168;56.976;24.168;2023-02-11T02:08:53;2.00;99.90
22008;DHT22;11168;56.976;24.168;2023-02-11T02:11:21;2.00;99.90
22008;DHT22;11168;56.976;24.168;2023-02-11T02:13:48;2.10;99.90
22008;DHT22;11168;56.976;24.168;2023-02-11T02:16:17;2.10;99.90
22008;DHT22;11168;56.976;24.168;2023-02-11T02:27:25;2.20;99.90
22008;DHT22;11168;56.976;24.168;2023-02-11T02:33:08;2.30;99.90
22008;DHT22;11168;56.976;24.168;2023-02-11T02:38:20;1.60;99.90
22008;DHT22;11168;56.976;24.168;2023-02-11T02:43:19;2.40;99.90
22008;DHT22;11168;56.976;24.168;2023-02-11T02:45:47;2.40;99.90
22008;DHT22;11168;56.976;24.168;2023-02-11T02:48:29;2.50;99.90
22008;DHT22;11168;56.976;24.168;2023-02-11T03:05:11;2.50;99.90
22008;DHT22;11168;56.976;24.168;2023-02-11T03:10:21;2.70;99.90
22008;DHT22;11168;56.976;24.168;2023-02-11T03:12:49;2.60;99.90
22008;DHT22;11168;56.976;24.168;2023-02-11T03:15:18;2.70;99.90
22008;DHT22;11168;56.976;24.168;2023-02-11T03:17:48;2.70;99.90
22008;DHT22;11168;56.976;24.168;2023-02-11T03:20:21;2.70;99.90
22008;DHT22;11168;56.976;24.168;2023-02-11T03:25:41;2.70;99.90
22008;DHT22;11168;56.976;24.168;2023-02-11T03:28:29;2.70;99.90
22008;DHT22;11168;56.976;24.168;2023-02-11T03:36:38;2.50;99.90
22008;DHT22;11168;56.976;24.168;2023-02-11T03:39:09;2.50;99.90
22008;DHT22;11168;56.976;24.168;2023-02-11T03:41:37;3.10;99.90
22008;DHT22;11168;56.976;24.168;2023-02-11T03:44:06;2.90;99.90
22008;DHT22;11168;56.976;24.168;2023-02-11T03:46:37;2.60;99.90
22008;DHT22;11168;56.976;24.168;2023-02-11T03:49:12;3.30;99.90
22008;DHT22;11168;56.976;24.168;2023-02-11T03:51:40;2.80;99.90
22008;DHT22;11168;56.976;24.168;2023-02-11T03:54:14;1.60;99.90
22008;DHT22;11168;56.976;24.168;2023-02-11T03:56:51;2.60;99.90
22008;DHT22;11168;56.976;24.168;2023-02-11T03:59:19;2.50;99.90
22008;DHT22;11168;56.976;24.168;2023-02-11T04:01:46;2.60;99.90
22008;DHT22;11168;56.976;24.168;2023-02-11T04:04:13;2.60;99.90
22008;DHT22;11168;56.976;24.168;2023-02-11T04:06:40;2.60;99.90
22008;DHT22;11168;56.976;24.168;2023-02-11T04:09:08;2.50;99.90
22008;DHT22;11168;56.976;24.168;2023-02-11T04:11:35;2.50;99.90
22008;DHT22;11168;56.976;24.168;2023-02-11T04:14:02;2.30;99.90
22008;DHT22;11168;56.976;24.168;2023-02-11T04:16:29;2.50;99.90
22008;DHT22;11168;56.976;24.168;2023-02-11T04:18:57;2.40;99.90
22008;DHT22;11168;56.976;24.168;2023-02-11T04:21:24;2.50;99.90
22008;DHT22;11168;56.976;24.168;2023-02-11T04:23:51;3.20;99.90
22008;DHT22;11168;56.976;24.168;2023-02-11T04:26:17;2.60;99.90
22008;DHT22;11168;56.976;24.168;2023-02-11T04:28:44;2.80;99.90
22008;DHT22;11168;56.976;24.168;2023-02-11T04:31:11;2.50;99.90
22008;DHT22;11168;56.976;24.168;2023-02-11T04:33:38;2.50;99.90
22008;DHT22;11168;56.976;24.168;2023-02-11T04:36:06;2.50;99.90
22008;DHT22;11168;56.976;24.168;2023-02-11T04:38:33;2.50;99.90
22008;DHT22;11168;56.976;24.168;2023-02-11T04:40:59;2.50;99.90
22008;DHT22;11168;56.976;24.168;2023-02-11T04:43:26;2.50;99.90
22008;DHT22;11168;56.976;24.168;2023-02-11T04:45:56;2.50;99.90
22008;DHT22;11168;56.976;24.168;2023-02-11T04:48:24;2.30;99.90
22008;DHT22;11168;56.976;24.168;2023-02-11T04:50:51;2.50;99.90
22008;DHT22;11168;56.976;24.168;2023-02-11T04:53:18;2.60;99.90
22008;DHT22;11168;56.976;24.168;2023-02-11T04:55:48;2.60;99.90
22008;DHT22;11168;56.976;24.168;2023-02-11T04:58:18;2.60;99.90
22008;DHT22;11168;56.976;24.168;2023-02-11T05:00:45;2.60;99.90
22008;DHT22;11168;56.976;24.168;2023-02-11T05:03:13;2.70;99.90
22008;DHT22;11168;56.976;24.168;2023-02-11T05:05:41;2.70;99.90
22008;DHT22;11168;56.976;24.168;2023-02-11T05:08:09;2.70;99.90
22008;DHT22;11168;56.976;24.168;2023-02-11T05:10:37;2.80;99.90
22008;DHT22;11168;56.976;24.168;2023-02-11T05:13:04;3.10;99.90
22008;DHT22;11168;56.976;24.168;2023-02-11T05:15:31;2.90;99.90
22008;DHT22;11168;56.976;24.168;2023-02-11T05:17:58;2.80;99.90
22008;DHT22;11168;56.976;24.168;2023-02-11T05:20:25;2.60;99.90
22008;DHT22;11168;56.976;24.168;2023-02-11T05:22:52;2.80;99.90
22008;DHT22;11168;56.976;24.168;2023-02-11T05:25:19;2.50;99.90
22008;DHT22;11168;56.976;24.168;2023-02-11T05:27:46;2.90;99.90
22008;DHT22;11168;56.976;24.168;2023-02-11T05:30:13;3.00;99.90
22008;DHT22;11168;56.976;24.168;2023-02-11T05:32:40;3.10;99.90
22008;DHT22;11168;56.976;24.168;2023-02-11T05:35:07;2.90;99.90
22008;DHT22;11168;56.976;24.168;2023-02-11T05:37:35;2.90;99.90
22008;DHT22;11168;56.976;24.168;2023-02-11T05:40:02;2.90;99.90
22008;DHT22;11168;56.976;24.168;2023-02-11T05:42:29;3.10;99.90
22008;DHT22;11168;56.976;24.168;2023-02-11T05:44:56;3.10;99.90
22008;DHT22;11168;56.976;24.168;2023-02-11T05:47:23;2.90;99.90
22008;DHT22;11168;56.976;24.168;2023-02-11T05:49:50;3.10;99.90
22008;DHT22;11168;56.976;24.168;2023-02-11T05:52:20;3.00;99.90
22008;DHT22;11168;56.976;24.168;2023-02-11T05:54:47;3.30;99.90
22008;DHT22;11168;56.976;24.168;2023-02-11T05:57:15;3.20;99.90
22008;DHT22;11168;56.976;24.168;2023-02-11T05:59:43;2.90;99.90
22008;DHT22;11168;56.976;24.168;2023-02-11T06:02:10;3.20;99.90
22008;DHT22;11168;56.976;24.168;2023-02-11T06:04:37;3.10;99.90
22008;DHT22;11168;56.976;24.168;2023-02-11T06:07:04;3.30;99.90
22008;DHT22;11168;56.976;24.168;2023-02-11T06:09:30;3.70;99.90
22008;DHT22;11168;56.976;24.168;2023-02-11T06:16:52;3.40;99.90
22008;DHT22;11168;56.976;24.168;2023-02-11T06:19:19;4.30;99.90
22008;DHT22;11168;56.976;24.168;2023-02-11T06:24:13;4.20;99.90
22008;DHT22;11168;56.976;24.168;2023-02-11T06:26:41;3.50;99.90
22008;DHT22;11168;56.976;24.168;2023-02-11T06:29:08;3.70;99.90
22008;DHT22;11168;56.976;24.168;2023-02-11T06:31:36;3.60;99.90
22008;DHT22;11168;56.976;24.168;2023-02-11T06:34:04;3.50;99.90
22008;DHT22;11168;56.976;24.168;2023-02-11T06:36:31;3.80;99.90
22008;DHT22;11168;56.976;24.168;2023-02-11T06:38:58;3.90;99.90
22008;DHT22;11168;56.976;24.168;2023-02-11T06:41:25;3.60;99.90
22008;DHT22;11168;56.976;24.168;2023-02-11T06:43:52;3.70;99.90
22008;DHT22;11168;56.976;24.168;2023-02-11T06:46:19;3.70;99.90
22008;DHT22;11168;56.976;24.168;2023-02-11T06:48:46;3.70;99.90
22008;DHT22;11168;56.976;24.168;2023-02-11T06:51:14;3.80;99.90
22008;DHT22;11168;56.976;24.168;2023-02-11T06:53:43;3.80;99.90
22008;DHT22;11168;56.976;24.168;2023-02-11T06:56:16;3.90;99.90
22008;DHT22;11168;56.976;24.168;2023-02-11T06:58:44;3.90;99.90
22008;DHT22;11168;56.976;24.168;2023-02-11T07:01:14;3.90;99.90
22008;DHT22;11168;56.976;24.168;2023-02-11T07:03:43;4.00;99.90
22008;DHT22;11168;56.976;24.168;2023-02-11T07:06:15;4.00;99.90
22008;DHT22;11168;56.976;24.168;2023-02-11T07:08:42;4.00;99.90
22008;DHT22;11168;56.976;24.168;2023-02-11T07:11:19;4.10;99.90
22008;DHT22;11168;56.976;24.168;2023-02-11T07:13:50;4.10;99.90
22008;DHT22;11168;56.976;24.168;2023-02-11T07:16:19;4.10;99.90
22008;DHT22;11168;56.976;24.168;2023-02-11T07:18:47;4.20;99.90
22008;DHT22;11168;56.976;24.168;2023-02-11T07:21:17;4.20;99.90
22008;DHT22;11168;56.976;24.168;2023-02-11T07:23:45;4.20;99.90
22008;DHT22;11168;56.976;24.168;2023-02-11T07:26:14;4.20;99.90
22008;DHT22;11168;56.976;24.168;2023-02-11T07:28:41;4.30;99.90
22008;DHT22;11168;56.976;24.168;2023-02-11T07:31:11;4.30;99.90
22008;DHT22;11168;56.976;24.168;2023-02-11T07:33:39;4.40;99.90
22008;DHT22;11168;56.976;24.168;2023-02-11T07:36:07;4.40;99.90
22008;DHT22;11168;56.976;24.168;2023-02-11T07:38:36;4.40;99.90
22008;DHT22;11168;56.976;24.168;2023-02-11T07:41:06;4.50;99.90
22008;DHT22;11168;56.976;24.168;2023-02-11T07:43:34;4.50;99.90
22008;DHT22;11168;56.976;24.168;2023-02-11T07:46:06;4.50;99.90
22008;DHT22;11168;56.976;24.168;2023-02-11T07:48:35;4.60;99.90
22008;DHT22;11168;56.976;24.168;2023-02-11T07:51:13;4.80;99.90
22008;DHT22;11168;56.976;24.168;2023-02-11T07:53:40;4.80;99.90
22008;DHT22;11168;56.976;24.168;2023-02-11T07:56:08;4.90;99.90
22008;DHT22;11168;56.976;24.168;2023-02-11T07:58:38;4.90;99.90
22008;DHT22;11168;56.976;24.168;2023-02-11T08:01:14;4.90;99.90
22008;DHT22;11168;56.976;24.168;2023-02-11T08:03:41;4.90;99.90
22008;DHT22;11168;56.976;24.168;2023-02-11T08:06:11;4.90;99.90
22008;DHT22;11168;56.976;24.168;2023-02-11T08:08:39;5.00;99.90
22008;DHT22;11168;56.976;24.168;2023-02-11T08:11:16;5.10;99.90
22008;DHT22;11168;56.976;24.168;2023-02-11T08:13:44;5.10;99.90
22008;DHT22;11168;56.976;24.168;2023-02-11T08:16:31;5.20;99.90
22008;DHT22;11168;56.976;24.168;2023-02-11T08:19:01;5.20;99.90
22008;DHT22;11168;56.976;24.168;2023-02-11T08:21:28;5.30;99.90
22008;DHT22;11168;56.976;24.168;2023-02-11T08:23:57;5.40;99.90
22008;DHT22;11168;56.976;24.168;2023-02-11T08:26:28;5.40;99.90
22008;DHT22;11168;56.976;24.168;2023-02-11T08:28:57;5.40;99.90
22008;DHT22;11168;56.976;24.168;2023-02-11T08:31:29;5.70;99.90
22008;DHT22;11168;56.976;24.168;2023-02-11T08:33:56;5.40;99.90
22008;DHT22;11168;56.976;24.168;2023-02-11T08:36:26;5.70;99.90
22008;DHT22;11168;56.976;24.168;2023-02-11T08:38:55;5.60;99.90
22008;DHT22;11168;56.976;24.168;2023-02-11T08:41:43;6.00;99.90
22008;DHT22;11168;56.976;24.168;2023-02-11T08:44:12;5.70;99.90
22008;DHT22;11168;56.976;24.168;2023-02-11T08:46:39;5.70;99.90
22008;DHT22;11168;56.976;24.168;2023-02-11T08:49:06;5.80;99.90
22008;DHT22;11168;56.976;24.168;2023-02-11T08:51:33;5.80;99.90
22008;DHT22;11168;56.976;24.168;2023-02-11T08:54:00;5.80;99.90
22008;DHT22;11168;56.976;24.168;2023-02-11T08:56:28;5.90;99.90
22008;DHT22;11168;56.976;24.168;2023-02-11T08:58:57;5.90;99.90
22008;DHT22;11168;56.976;24.168;2023-02-11T09:01:27;5.90;99.90
22008;DHT22;11168;56.976;24.168;2023-02-11T09:03:55;5.90;99.90
22008;DHT22;11168;56.976;24.168;2023-02-11T09:06:24;5.90;99.90
22008;DHT22;11168;56.976;24.168;2023-02-11T09:08:53;5.90;99.90
22008;DHT22;11168;56.976;24.168;2023-02-11T09:11:25;5.90;99.90
22008;DHT22;11168;56.976;24.168;2023-02-11T09:13:52;5.90;99.90
22008;DHT22;11168;56.976;24.168;2023-02-11T09:16:25;5.90;99.90
22008;DHT22;11168;56.976;24.168;2023-02-11T09:18:54;5.90;99.90
22008;DHT22;11168;56.976;24.168;2023-02-11T09:21:22;5.80;99.90
22008;DHT22;11168;56.976;24.168;2023-02-11T09:23:49;5.90;99.90
22008;DHT22;11168;56.976;24.168;2023-02-11T09:26:19;5.90;99.90
22008;DHT22;11168;56.976;24.168;2023-02-11T09:28:46;5.90;99.90
22008;DHT22;11168;56.976;24.168;2023-02-11T09:31:16;5.90;99.90
22008;DHT22;11168;56.976;24.168;2023-02-11T09:33:45;5.90;99.90
22008;DHT22;11168;56.976;24.168;2023-02-11T09:36:21;5.90;99.90
22008;DHT22;11168;56.976;24.168;2023-02-11T09:38:48;6.00;99.90
22008;DHT22;11168;56.976;24.168;2023-02-11T09:43:53;6.00;99.90
22008;DHT22;11168;56.976;24.168;2023-02-11T09:46:23;6.10;99.90
22008;DHT22;11168;56.976;24.168;2023-02-11T09:48:53;6.10;99.90
22008;DHT22;11168;56.976;24.168;2023-02-11T09:51:40;6.10;99.90
22008;DHT22;11168;56.976;24.168;2023-02-11T09:54:22;6.10;99.90
22008;DHT22;11168;56.976;24.168;2023-02-11T09:56:52;6.10;99.90
22008;DHT22;11168;56.976;24.168;2023-02-11T09:59:20;6.10;99.90
22008;DHT22;11168;56.976;24.168;2023-02-11T10:01:52;5.90;99.90
22008;DHT22;11168;56.976;24.168;2023-02-11T10:16:27;5.60;99.90
22008;DHT22;11168;56.976;24.168;2023-02-11T10:22:34;5.40;99.90
22008;DHT22;11168;56.976;24.168;2023-02-11T10:24:59;5.40;99.90
22008;DHT22;11168;56.976;24.168;2023-02-11T10:27:34;5.20;99.90
22008;DHT22;11168;56.976;24.168;2023-02-11T10:35:16;4.90;99.90
22008;DHT22;11168;56.976;24.168;2023-02-11T10:37:44;4.80;99.90
22008;DHT22;11168;56.976;24.168;2023-02-11T10:40:30;4.70;99.90
22008;DHT22;11168;56.976;24.168;2023-02-11T10:43:00;4.60;99.90
22008;DHT22;11168;56.976;24.168;2023-02-11T10:45:44;4.50;99.90
22008;DHT22;11168;56.976;24.168;2023-02-11T10:48:41;4.50;99.90
22008;DHT22;11168;56.976;24.168;2023-02-11T10:53:40;4.30;99.90
22008;DHT22;11168;56.976;24.168;2023-02-11T10:56:10;4.20;99.90
22008;DHT22;11168;56.976;24.168;2023-02-11T11:01:08;4.10;99.90
22008;DHT22;11168;56.976;24.168;2023-02-11T11:03:52;4.00;99.90
22008;DHT22;11168;56.976;24.168;2023-02-11T11:06:32;4.00;99.90
22008;DHT22;11168;56.976;24.168;2023-02-11T11:09:02;3.90;99.90
22008;DHT22;11168;56.976;24.168;2023-02-11T11:11:30;3.80;99.90
22008;DHT22;11168;56.976;24.168;2023-02-11T11:14:01;3.90;99.90
22008;DHT22;11168;56.976;24.168;2023-02-11T11:16:36;4.90;99.90
22008;DHT22;11168;56.976;24.168;2023-02-11T11:26:44;9.30;99.90
22008;DHT22;11168;56.976;24.168;2023-02-11T11:29:26;8.90;99.90
22008;DHT22;11168;56.976;24.168;2023-02-11T11:31:58;7.10;99.90
22008;DHT22;11168;56.976;24.168;2023-02-11T11:34:39;5.90;99.90
22008;DHT22;11168;56.976;24.168;2023-02-11T11:40:09;4.40;99.90
22008;DHT22;11168;56.976;24.168;2023-02-11T11:42:38;3.90;99.90
22008;DHT22;11168;56.976;24.168;2023-02-11T11:45:28;3.70;99.90
22008;DHT22;11168;56.976;24.168;2023-02-11T11:48:18;3.50;99.90
22008;DHT22;11168;56.976;24.168;2023-02-11T11:50:51;3.40;99.90
22008;DHT22;11168;56.976;24.168;2023-02-11T11:58:36;3.10;99.90
22008;DHT22;11168;56.976;24.168;2023-02-11T12:12:06;3.10;99.90
22008;DHT22;11168;56.976;24.168;2023-02-11T12:28:33;2.60;99.90
22008;DHT22;11168;56.976;24.168;2023-02-11T12:39:48;2.30;99.90
22008;DHT22;11168;56.976;24.168;2023-02-11T12:42:39;2.40;99.90
22008;DHT22;11168;56.976;24.168;2023-02-11T12:54:40;2.30;99.90
22008;DHT22;11168;56.976;24.168;2023-02-11T12:57:15;2.30;99.90
22008;DHT22;11168;56.976;24.168;2023-02-11T13:04:55;2.30;99.90
22008;DHT22;11168;56.976;24.168;2023-02-11T13:07:42;2.30;99.90
22008;DHT22;11168;56.976;24.168;2023-02-11T13:12:44;2.30;99.90
22008;DHT22;11168;56.976;24.168;2023-02-11T13:15:32;2.30;99.90
22008;DHT22;11168;56.976;24.168;2023-02-11T13:18:26;2.20;99.90
22008;DHT22;11168;56.976;24.168;2023-02-11T13:26:13;2.20;99.90
22008;DHT22;11168;56.976;24.168;2023-02-11T13:29:54;2.20;99.90
22008;DHT22;11168;56.976;24.168;2023-02-11T13:32:04;2.20;99.90
22008;DHT22;11168;56.976;24.168;2023-02-11T13:42:53;1.90;99.90
22008;DHT22;11168;56.976;24.168;2023-02-11T13:48:36;1.90;99.90
22008;DHT22;11168;56.976;24.168;2023-02-11T13:51:13;2.00;99.90
22008;DHT22;11168;56.976;24.168;2023-02-11T13:53:50;1.90;99.90
22008;DHT22;11168;56.976;24.168;2023-02-11T13:56:39;1.90;99.90
22008;DHT22;11168;56.976;24.168;2023-02-11T14:16:16;1.60;99.90
22008;DHT22;11168;56.976;24.168;2023-02-11T14:19:03;1.60;99.90
22008;DHT22;11168;56.976;24.168;2023-02-11T14:21:37;1.60;99.90
22008;DHT22;11168;56.976;24.168;2023-02-11T14:35:11;1.50;99.90
22008;DHT22;11168;56.976;24.168;2023-02-11T14:41:15;1.50;99.90
22008;DHT22;11168;56.976;24.168;2023-02-11T14:43:24;1.60;99.90
22008;DHT22;11168;56.976;24.168;2023-02-11T14:45:56;1.60;99.90
22008;DHT22;11168;56.976;24.168;2023-02-11T14:48:32;1.50;99.90
22008;DHT22;11168;56.976;24.168;2023-02-11T14:51:09;1.60;99.90
22008;DHT22;11168;56.976;24.168;2023-02-11T14:53:43;1.50;99.90
22008;DHT22;11168;56.976;24.168;2023-02-11T14:56:20;1.50;99.90
22008;DHT22;11168;56.976;24.168;2023-02-11T14:58:48;1.50;99.90
22008;DHT22;11168;56.976;24.168;2023-02-11T15:01:27;1.60;99.90
22008;DHT22;11168;56.976;24.168;2023-02-11T15:04:03;1.60;99.90
22008;DHT22;11168;56.976;24.168;2023-02-11T15:06:33;1.60;99.90
22008;DHT22;11168;56.976;24.168;2023-02-11T15:11:40;1.60;99.90
22008;DHT22;11168;56.976;24.168;2023-02-11T15:14:18;1.60;99.90
22008;DHT22;11168;56.976;24.168;2023-02-11T15:16:48;1.60;99.90
22008;DHT22;11168;56.976;24.168;2023-02-11T15:19:23;1.60;99.90
22008;DHT22;11168;56.976;24.168;2023-02-11T15:21:52;1.60;99.90
22008;DHT22;11168;56.976;24.168;2023-02-11T15:24:22;1.60;99.90
22008;DHT22;11168;56.976;24.168;2023-02-11T15:27:09;1.60;99.90
22008;DHT22;11168;56.976;24.168;2023-02-11T15:29:44;1.60;99.90
22008;DHT22;11168;56.976;24.168;2023-02-11T15:34:43;1.50;99.90
22008;DHT22;11168;56.976;24.168;2023-02-11T15:37:13;1.50;99.90
22008;DHT22;11168;56.976;24.168;2023-02-11T15:39:42;1.50;99.90
22008;DHT22;11168;56.976;24.168;2023-02-11T15:47:46;1.40;99.90
22008;DHT22;11168;56.976;24.168;2023-02-11T15:50:20;1.40;99.90
22008;DHT22;11168;56.976;24.168;2023-02-11T15:52:48;1.40;99.90
22008;DHT22;11168;56.976;24.168;2023-02-11T15:55:16;1.30;99.90
22008;DHT22;11168;56.976;24.168;2023-02-11T15:58:03;1.40;99.90
22008;DHT22;11168;56.976;24.168;2023-02-11T16:00:36;1.30;99.90
22008;DHT22;11168;56.976;24.168;2023-02-11T16:03:04;1.30;99.90
22008;DHT22;11168;56.976;24.168;2023-02-11T16:05:36;1.30;99.90
22008;DHT22;11168;56.976;24.168;2023-02-11T16:08:27;1.20;99.90
22008;DHT22;11168;56.976;24.168;2023-02-11T16:11:24;1.20;99.90
22008;DHT22;11168;56.976;24.168;2023-02-11T16:13:52;1.20;99.90
22008;DHT22;11168;56.976;24.168;2023-02-11T16:16:49;1.20;99.90
22008;DHT22;11168;56.976;24.168;2023-02-11T16:19:21;1.10;99.90
22008;DHT22;11168;56.976;24.168;2023-02-11T16:21:52;1.10;99.90
22008;DHT22;11168;56.976;24.168;2023-02-11T16:24:24;1.10;99.90
22008;DHT22;11168;56.976;24.168;2023-02-11T16:26:56;1.10;99.90
22008;DHT22;11168;56.976;24.168;2023-02-11T16:29:29;1.10;99.90
22008;DHT22;11168;56.976;24.168;2023-02-11T16:32:16;1.10;99.90
22008;DHT22;11168;56.976;24.168;2023-02-11T16:34:43;1.00;99.90
22008;DHT22;11168;56.976;24.168;2023-02-11T16:37:10;1.00;99.90
22008;DHT22;11168;56.976;24.168;2023-02-11T16:39:37;0.90;99.90
22008;DHT22;11168;56.976;24.168;2023-02-11T16:42:04;0.90;99.90
22008;DHT22;11168;56.976;24.168;2023-02-11T16:44:34;0.80;99.90
22008;DHT22;11168;56.976;24.168;2023-02-11T16:47:03;0.80;99.90
22008;DHT22;11168;56.976;24.168;2023-02-11T16:49:38;0.70;99.90
22008;DHT22;11168;56.976;24.168;2023-02-11T16:52:08;0.70;99.90
22008;DHT22;11168;56.976;24.168;2023-02-11T16:54:38;0.70;99.90
22008;DHT22;11168;56.976;24.168;2023-02-11T16:57:14;0.70;99.90
22008;DHT22;11168;56.976;24.168;2023-02-11T16:59:42;0.60;99.90
22008;DHT22;11168;56.976;24.168;2023-02-11T17:02:15;0.60;99.90
22008;DHT22;11168;56.976;24.168;2023-02-11T17:04:44;0.60;99.90
22008;DHT22;11168;56.976;24.168;2023-02-11T17:07:11;0.60;99.90
22008;DHT22;11168;56.976;24.168;2023-02-11T17:09:38;0.60;99.90
22008;DHT22;11168;56.976;24.168;2023-02-11T17:12:07;0.60;99.90
22008;DHT22;11168;56.976;24.168;2023-02-11T17:14:34;0.50;99.90
22008;DHT22;11168;56.976;24.168;2023-02-11T17:17:00;0.50;99.90
22008;DHT22;11168;56.976;24.168;2023-02-11T17:19:27;0.50;99.90
22008;DHT22;11168;56.976;24.168;2023-02-11T17:21:54;0.50;99.90
22008;DHT22;11168;56.976;24.168;2023-02-11T17:24:22;0.50;99.90
22008;DHT22;11168;56.976;24.168;2023-02-11T17:26:49;0.50;99.90
22008;DHT22;11168;56.976;24.168;2023-02-11T17:29:19;0.50;99.90
22008;DHT22;11168;56.976;24.168;2023-02-11T17:31:46;0.40;99.90
22008;DHT22;11168;56.976;24.168;2023-02-11T17:34:13;0.50;99.90
22008;DHT22;11168;56.976;24.168;2023-02-11T17:36:40;0.40;99.90
22008;DHT22;11168;56.976;24.168;2023-02-11T17:39:07;0.40;99.90
22008;DHT22;11168;56.976;24.168;2023-02-11T17:41:36;0.40;99.90
22008;DHT22;11168;56.976;24.168;2023-02-11T17:44:04;0.50;99.90
22008;DHT22;11168;56.976;24.168;2023-02-11T17:46:33;0.50;99.90
22008;DHT22;11168;56.976;24.168;2023-02-11T17:49:01;0.50;99.90
22008;DHT22;11168;56.976;24.168;2023-02-11T17:51:34;0.40;99.90
22008;DHT22;11168;56.976;24.168;2023-02-11T17:54:06;0.40;99.90
22008;DHT22;11168;56.976;24.168;2023-02-11T17:56:34;0.40;99.90
22008;DHT22;11168;56.976;24.168;2023-02-11T17:59:03;0.40;99.90
22008;DHT22;11168;56.976;24.168;2023-02-11T18:01:32;0.40;99.90
22008;DHT22;11168;56.976;24.168;2023-02-11T18:04:00;0.40;99.90
22008;DHT22;11168;56.976;24.168;2023-02-11T18:06:27;0.40;99.90
22008;DHT22;11168;56.976;24.168;2023-02-11T18:08:56;0.40;99.90
22008;DHT22;11168;56.976;24.168;2023-02-11T18:11:25;0.40;99.90
22008;DHT22;11168;56.976;24.168;2023-02-11T18:13:54;0.40;99.90
22008;DHT22;11168;56.976;24.168;2023-02-11T18:16:22;0.40;99.90
22008;DHT22;11168;56.976;24.168;2023-02-11T18:18:50;0.40;99.90
22008;DHT22;11168;56.976;24.168;2023-02-11T18:21:19;0.50;99.90
22008;DHT22;11168;56.976;24.168;2023-02-11T18:23:47;0.50;99.90
22008;DHT22;11168;56.976;24.168;2023-02-11T18:26:16;0.60;99.90
22008;DHT22;11168;56.976;24.168;2023-02-11T18:28:43;0.60;99.90
22008;DHT22;11168;56.976;24.168;2023-02-11T18:31:12;0.60;99.90
22008;DHT22;11168;56.976;24.168;2023-02-11T18:33:40;0.70;99.90
22008;DHT22;11168;56.976;24.168;2023-02-11T18:36:12;0.70;99.90
22008;DHT22;11168;56.976;24.168;2023-02-11T18:38:40;0.70;99.90
22008;DHT22;11168;56.976;24.168;2023-02-11T18:41:10;0.70;99.90
22008;DHT22;11168;56.976;24.168;2023-02-11T18:43:38;0.70;99.90
22008;DHT22;11168;56.976;24.168;2023-02-11T18:46:11;0.70;99.90
22008;DHT22;11168;56.976;24.168;2023-02-11T18:48:39;0.60;99.90
22008;DHT22;11168;56.976;24.168;2023-02-11T18:51:14;0.60;99.90
22008;DHT22;11168;56.976;24.168;2023-02-11T18:53:41;0.60;99.90
22008;DHT22;11168;56.976;24.168;2023-02-11T18:56:12;0.70;99.90
22008;DHT22;11168;56.976;24.168;2023-02-11T18:58:39;0.60;99.90
22008;DHT22;11168;56.976;24.168;2023-02-11T19:01:12;0.60;99.90
22008;DHT22;11168;56.976;24.168;2023-02-11T19:03:39;0.60;99.90
22008;DHT22;11168;56.976;24.168;2023-02-11T19:06:11;0.60;99.90
22008;DHT22;11168;56.976;24.168;2023-02-11T19:08:38;0.60;99.90
22008;DHT22;11168;56.976;24.168;2023-02-11T19:11:05;0.60;99.90
22008;DHT22;11168;56.976;24.168;2023-02-11T19:13:32;0.60;99.90
22008;DHT22;11168;56.976;24.168;2023-02-11T19:15:59;0.60;99.90
22008;DHT22;11168;56.976;24.168;2023-02-11T19:18:26;0.60;99.90